Latest Coastal Weather Observations for Neptune Island

IDT60701

Issued at 5:55 pm EST Friday 1 August 2014 (issued every 10 minutes, with the page automatically refreshed every 10 minutes)

About coastal observations | Map of coastal stations | Coastal observations for TAS | Marine services | Other Formats
Station Details ID: 018115 Name: NEPTUNE ISLAND Lat: -35.34 Lon: 136.12 Height: 32.0 m
Data from the previous 72 hours. | See also: Recent months at Neptune Island
Date/Time
EST
Temp

°C
Wind Pressure Rain
since 9am
mm
Weather Cloud Vis
km
Sea
Height
m
Swell
Dir
 
Speed
knots
Gust
knots
hPa Trend Height
m
Period
s
Dir
01/05:30pm 11.9 SSW 19 25 1024.6 - 0.6 - - - - - - -
01/05:00pm 11.7 S 19 24 1024.2 - 0.6 - - - - - - -
01/04:30pm 11.7 S 22 26 1023.7 - 0.6 - - - - - - -
01/04:00pm 12.7 SSW 22 29 1023.5 - 0.6 - - - - - - -
01/03:30pm 12.6 SSW 19 24 1023.2 - 0.6 - - - - - - -
01/03:00pm 12.0 S 25 29 1022.9 - 0.6 - - - - - - -
01/02:30pm 12.5 SSW 23 29 1022.4 - 0.6 - - - - - - -
01/02:00pm 12.7 SW 27 34 1022.1 - 0.6 - - - - - - -
01/01:45pm 12.0 SW 22 32 1022.0 - 0.6 - - - - - - -
01/01:30pm 12.0 SSW 23 28 1022.1 - 0.6 - - - - - - -
01/01:00pm 12.8 SSW 27 35 1021.6 - 0.6 - - - - - - -
01/12:30pm 12.8 SSW 27 33 1021.3 - 0.6 - - - - - - -
01/12:00pm 12.4 SSW 32 38 1021.0 - 0.6 - - - - - - -
01/11:49am 12.4 SSW 29 39 1020.6 - 0.6 - - - - - - -
01/11:30am 12.3 SSW 32 38 1020.3 - 0.6 - - - - - - -
01/11:00am 12.2 SW 31 38 1020.0 - 0.6 - - - - - - -
01/10:30am 11.3 SW 35 41 1019.3 - 0.6 - - - - - - -
01/10:05am 11.0 SW 38 48 1018.4 - 0.6 - - - - - - -
01/10:00am 11.3 SW 37 45 1018.2 - 0.6 - - - - - - -
01/09:56am 11.1 SSW 37 44 1018.3 - 0.6 - - - - - - -
01/09:46am 10.5 SW 26 36 1018.7 - 0.6 - - - - - - -
01/09:39am 9.7 SSW 31 36 1018.6 - 0.4 - - - - - - -
01/09:37am 9.7 SW 41 53 1018.4 - 0.4 - - - - - - -
01/09:35am 10.1 SW 45 53 1017.7 - 0.0 - - - - - - -
01/09:34am 11.1 SW 34 53 1017.5 - 0.0 - - - - - - -
01/09:30am 11.9 SSW 28 40 1017.8 - - - - - - - - -
01/09:27am 11.5 SSW 26 37 1017.7 - - - - - - - - -
01/09:21am 10.9 SSW 23 27 1018.0 - - - - - - - - -
01/09:12am 11.5 SW 35 47 1017.2 - - - - - - - - -
01/09:00am 11.6 SW 35 43 1016.9 - - - - - - - - -
01/08:30am 11.2 SW 37 47 1016.3 - - - - - - - - -
01/08:06am 11.5 SW 35 45 1016.0 - - - - - - - - -
01/08:00am 11.4 SW 36 45 1015.7 - - - - - - - - -
01/07:45am 11.5 SW 36 46 1015.7 - - - - - - - - -
01/07:30am 11.5 SW 37 45 1015.0 - - - - - - - - -
01/07:20am 11.3 SW 37 47 1015.0 - - - - - - - - -
01/07:00am 11.3 SW 37 45 1014.4 - - - - - - - - -
01/06:31am 11.3 SW 38 48 1014.1 - - - - - - - - -
01/06:30am 11.2 SW 39 48 1014.1 - - - - - - - - -
01/06:00am 11.1 SW 38 50 1013.1 - - - - - - - - -
01/05:51am 11.0 SW 40 50 1012.7 - - - - - - - - -
01/05:30am 11.2 SW 40 49 1012.6 - - - - - - - - -
01/05:08am 10.8 SW 39 49 1012.0 - - - - - - - - -
01/05:00am 11.0 SW 39 46 1012.1 - - - - - - - - -
01/04:30am 10.7 SW 39 50 1011.6 - - - - - - - - -
01/04:04am 10.5 SW 42 52 1011.2 - - - - - - - - -
01/04:00am 11.3 - - - 1011.2 - - - - - - - - -
01/03:37am 11.1 WSW 41 55 1010.6 - 4.2 - - - - - - -
01/03:30am 11.4 WSW 40 48 1010.7 - 4.2 - - - - - - -
01/03:00am 10.9 WSW 39 51 1010.5 - 4.2 - - - - - - -
01/02:30am 10.8 WSW 39 49 1010.6 - 4.2 - - - - - - -
01/02:00am 10.6 SW 39 50 1010.2 - 4.0 - - - - - - -
01/01:40am 9.8 SW 37 47 1010.4 - 4.0 - - - - - - -
01/01:30am 9.2 SW 40 49 1010.8 - 4.0 - - - - - - -
01/01:23am 9.1 SW 39 49 1010.5 - 4.0 - - - - - - -
01/01:22am 9.7 SW 38 43 1010.5 - 4.0 - - - - - - -
01/01:16am 9.6 SW 51 62 1009.8 - 3.8 - - - - - - -
01/01:15am 10.0 SW 40 62 1009.8 - 3.8 - - - - - - -
01/01:11am 11.0 SW 35 46 1010.0 - 3.6 - - - - - - -
01/01:00am 10.4 SW 34 43 1010.1 - 3.6 - - - - - - -
01/12:39am 9.7 SW 40 50 1010.3 - 3.6 - - - - - - -
01/12:34am 9.3 SW 43 50 1010.1 - 3.6 - - - - - - -
01/12:31am 10.2 SW 33 43 1010.3 - 3.4 - - - - - - -
01/12:30am 10.1 SW 33 41 1010.4 - 3.4 Recent precip. - - - - - -
01/12:16am 9.9 SW 38 48 1010.3 - 3.4 - - - - - - -
01/12:13am 10.1 SW 37 44 1010.3 - 3.4 - - - - - - -
01/12:04am 11.2 WSW 33 43 1010.2 - 3.4 - - - - - - -
01/12:00am 10.8 WSW 35 43 1010.0 - 3.4 - - - - - - -
 
Date/Time
EST
Temp

°C
Wind Pressure Rain
since 9am
mm
Weather Cloud Vis
km
Sea
Height
m
Swell
Dir
 
Speed
knots
Gust
knots
hPa Trend Height
m
Period
s
Dir
31/11:30pm 10.3 WSW 34 52 1010.2 - 3.2 - - - - - - -
31/11:00pm 10.2 SW 33 41 1010.2 - 3.2 - - - - - - -
31/10:41pm 11.2 WSW 36 47 1009.5 - 2.8 - - - - - - -
31/10:30pm 11.2 WSW 34 43 1009.9 - 2.8 - - - - - - -
31/10:27pm 11.1 W 32 43 1009.7 - 2.8 - - - - - - -
31/10:14pm 10.9 W 26 31 1010.0 - 2.8 - - - - - - -
31/10:00pm 10.7 WSW 37 48 1009.9 - 2.8 - - - - - - -
31/09:53pm 10.7 WSW 38 48 1009.4 - 2.8 - - - - - - -
31/09:30pm 10.9 WSW 37 45 1009.4 - 2.8 - - - - - - -
31/09:21pm 10.9 WSW 37 47 1009.3 - 2.8 - - - - - - -
31/09:00pm 10.6 WSW 40 47 1009.4 - 2.8 - - - - - - -
31/08:30pm 10.6 W 38 50 1008.8 - 2.8 - - - - - - -
31/08:10pm 10.9 WSW 36 49 1008.7 - 2.8 - - - - - - -
31/08:00pm 11.4 WSW 37 45 1008.8 - 2.8 - - - - - - -
31/07:42pm 11.4 WSW 35 45 1008.6 - 2.8 - - - - - - -
31/07:30pm 11.4 WSW 33 40 1008.5 - 2.8 - - - - - - -
31/07:00pm 10.5 WSW 33 43 1008.4 - 2.8 - - - - - - -
31/06:42pm 9.9 WSW 35 50 1007.9 - 2.8 - - - - - - -
31/06:30pm 10.3 WSW 35 43 1007.8 - 2.8 Recent precip. - - - - - -
31/06:16pm 10.8 WSW 35 49 1007.6 - 2.6 - - - - - - -
31/06:00pm 10.6 WSW 37 44 1007.5 - 2.6 - - - - - - -
31/05:30pm 10.2 WSW 38 45 1007.1 - 2.6 - - - - - - -
31/05:00pm 10.4 WSW 35 45 1006.4 - 1.8 - - - - - - -
31/04:34pm 11.5 WSW 35 45 1006.2 - 1.8 - - - - - - -
31/04:30pm 11.5 WSW 36 45 1005.9 - 1.8 - - - - - - -
31/04:05pm 11.1 WSW 35 45 1005.8 - 1.8 - - - - - - -
31/04:00pm 10.7 WSW 37 45 1005.9 - 1.8 - - - - - - -
31/03:35pm 9.7 SW 43 53 1005.6 - 1.8 - - - - - - -
31/03:30pm 9.3 SW 45 53 1005.3 - 1.8 Recent precip. - - - - - -
31/03:26pm 9.6 SW 47 53 1004.7 - 1.8 - - - - - - -
31/03:00pm 10.7 SW 37 48 1004.9 - 1.8 - - - - - - -
31/02:40pm 10.3 WSW 37 47 1004.1 - 1.4 - - - - - - -
31/02:30pm 11.6 WSW 35 41 1004.1 - 1.2 - - - - - - -
31/02:00pm 11.6 WSW 39 49 1003.2 - 1.2 - - - - - - -
31/01:30pm 11.3 WSW 38 49 1003.2 - 1.0 - - - - - - -
31/01:00pm 11.6 WSW 43 53 1002.8 - 1.0 - - - - - - -
31/12:50pm 11.5 WSW 50 60 1002.7 - 1.0 - - - - - - -
31/12:44pm 12.0 WSW 51 56 1002.2 - 1.0 - - - - - - -
31/12:30pm 13.1 W 38 49 1002.5 - 1.0 Recent precip. - - - - - -
31/12:00pm 11.6 W 37 47 1003.2 - 1.0 - - - - - - -
31/11:37am 12.3 WSW 37 47 1003.8 - 0.8 - - - - - - -
31/11:30am 11.7 WSW 40 47 1003.2 - 0.8 - - - - - - -
31/11:00am 11.2 WSW 39 47 1003.2 - 0.8 - - - - - - -
31/10:37am 12.1 WSW 33 43 1003.2 - 0.6 - - - - - - -
31/10:30am 12.0 WSW 31 37 1003.4 - 0.6 - - - - - - -
31/10:00am 11.6 SW 34 40 1003.1 - 0.4 - - - - - - -
31/09:39am 11.8 WSW 36 46 1002.6 - 0.2 - - - - - - -
31/09:30am 12.3 WSW 34 41 1002.5 - - Recent precip. - - - - - -
31/09:00am 12.5 WSW 32 38 1001.8 - - - - - - - - -
31/08:57am 12.6 WSW 32 38 1001.8 - - - - - - - - -
31/08:53am 13.5 WNW 37 55 1001.0 - - - - - - - - -
31/08:30am 15.6 WNW 37 46 1001.0 - - - - - - - - -
31/08:12am 15.5 NW 35 45 1000.9 - - - - - - - - -
31/08:00am 15.4 WNW 34 42 1001.2 - - - - - - - - -
31/07:38am 15.4 WNW 35 46 1001.4 - - - - - - - - -
31/07:30am 15.3 WNW 34 43 1001.7 - - - - - - - - -
31/07:00am 15.4 WNW 34 44 1001.8 - - - - - - - - -
31/06:50am 15.3 WNW 35 45 1001.6 - - - - - - - - -
31/06:30am 15.3 WNW 37 44 1002.4 - - - - - - - - -
31/06:09am 15.3 WNW 34 44 1002.5 - - - - - - - - -
31/06:00am 15.3 WNW 36 44 1002.2 - - - - - - - - -
31/05:49am 15.3 WNW 35 45 1002.4 - - - - - - - - -
31/05:30am 15.2 WNW 37 45 1002.7 - - - - - - - - -
31/05:13am 15.2 WNW 31 41 1003.1 - - - - - - - - -
31/05:12am 15.3 WNW 30 35 1003.1 - - - - - - - - -
31/05:00am 15.3 WNW 40 51 1002.8 - - - - - - - - -
31/04:39am 15.4 WNW 38 49 1003.1 - - - - - - - - -
31/04:30am 15.4 WNW 37 46 1003.4 - - - - - - - - -
31/04:03am 15.4 WNW 37 47 1003.8 - - - - - - - - -
31/04:00am 15.4 - - - 1003.8 - - - - - - - - -
31/03:30am 15.5 WNW 39 49 1004.0 - 0.2 - - - - - - -
31/03:00am 15.3 WNW 37 48 1004.6 - 0.2 - - - - - - -
31/02:39am 15.4 WNW 33 43 1005.1 - 0.2 - - - - - - -
31/02:30am 15.4 WNW 33 41 1005.2 - 0.2 - - - - - - -
31/02:00am 15.3 WNW 31 40 1005.4 - 0.2 - - - - - - -
31/01:30am 15.4 WNW 33 40 1005.9 - 0.2 - - - - - - -
31/01:00am 15.4 WNW 30 40 1006.6 - 0.2 - - - - - - -
31/12:30am 15.7 WNW 30 40 1007.1 - 0.2 - - - - - - -
31/12:22am 15.5 WNW 29 40 1007.3 - 0.2 - - - - - - -
31/12:00am 15.5 WNW 29 35 1007.7 - 0.2 - - - - - - -
 
Date/Time
EST
Temp

°C
Wind Pressure Rain
since 9am
mm
Weather Cloud Vis
km
Sea
Height
m
Swell
Dir
 
Speed
knots
Gust
knots
hPa Trend Height
m
Period
s
Dir
30/11:30pm 15.5 WNW 25 30 1008.3 - 0.2 - - - - - - -
30/11:00pm 15.3 NW 27 32 1008.7 - 0.2 - - - - - - -
30/10:30pm 15.3 WNW 25 37 1009.1 - 0.2 - - - - - - -
30/10:25pm 15.2 WNW 24 36 1009.5 - 0.2 - - - - - - -
30/10:00pm 15.5 NW 29 33 1009.5 - 0.0 - - - - - - -
30/09:30pm 15.5 NW 28 35 1010.0 - 0.0 - - - - - - -
30/09:00pm 15.5 NW 29 34 1010.2 - 0.0 - - - - - - -
30/08:30pm 15.4 NW 29 37 1010.6 - 0.0 - - - - - - -
30/08:00pm 15.5 NW 30 35 1010.8 - 0.0 - - - - - - -
30/07:30pm 15.6 NW 28 33 1011.1 - 0.0 - - - - - - -
30/07:00pm 15.6 NW 25 31 1011.3 - 0.0 - - - - - - -
30/06:45pm 15.5 NW 23 34 1011.0 - 0.0 - - - - - - -
30/06:30pm 15.7 NW 26 33 1011.2 - 0.0 - - - - - - -
30/06:00pm 15.6 NW 27 33 1011.1 - 0.0 - - - - - - -
30/05:30pm 15.6 NW 26 32 1011.2 - 0.0 - - - - - - -
30/05:00pm 15.8 NW 30 36 1011.2 - 0.0 - - - - - - -
30/04:30pm 16.1 NW 28 34 1011.4 - 0.0 - - - - - - -
30/04:00pm 16.3 NW 28 34 1011.4 - 0.0 - - - - - - -
30/03:30pm 16.1 NW 28 33 1011.7 - 0.0 - - - - - - -
30/03:00pm 16.6 NW 28 34 1012.0 - 0.0 - - - - - - -
30/02:30pm 16.5 NW 28 34 1012.4 - 0.0 - - - - - - -
30/02:00pm 16.7 WNW 26 31 1012.9 - 0.0 - - - - - - -
30/01:30pm 16.8 NW 26 32 1013.2 - 0.0 - - - - - - -
30/01:00pm 16.8 NW 23 29 1013.9 - 0.0 - - - - - - -
30/12:30pm 16.9 NW 23 28 1014.6 - 0.0 - - - - - - -
30/12:00pm 16.9 WNW 22 26 1015.2 - 0.0 - - - - - - -
30/11:30am 16.6 WNW 22 28 1015.6 - 0.0 - - - - - - -
30/11:00am 16.2 W 25 32 1015.9 - 0.0 - - - - - - -
30/10:30am 16.1 W 24 29 1016.1 - 0.0 - - - - - - -
30/10:00am 15.7 W 27 32 1016.0 - 0.0 - - - - - - -
30/09:30am 15.7 W 28 40 1016.0 - - - - - - - - -
30/09:24am 15.7 W 30 40 1015.9 - - - - - - - - -
30/09:00am 15.6 W 28 35 1016.0 - - - - - - - - -
30/08:30am 15.5 W 29 35 1015.8 - - - - - - - - -
30/08:00am 15.7 W 25 30 1015.6 - - - - - - - - -
30/07:30am 15.7 W 28 33 1015.6 - - - - - - - - -
30/07:00am 15.6 WNW 22 28 1015.4 - - - - - - - - -
30/06:30am 15.5 W 23 27 1015.3 - - - - - - - - -
30/06:00am 15.5 W 25 31 1015.0 - - - - - - - - -
30/05:30am 15.5 W 27 32 1015.0 - - - - - - - - -
30/05:00am 15.5 W 24 30 1014.9 - - - - - - - - -
30/04:30am 15.4 W 26 32 1015.0 - - - - - - - - -
30/04:00am 15.5 - - - 1015.3 - - - - - - - - -
30/03:30am 15.8 W 25 30 1015.3 - 0.6 - - - - - - -
30/03:00am 15.8 W 24 31 1015.6 - 0.6 - - - - - - -
30/02:30am 15.8 W 25 29 1016.0 - 0.6 - - - - - - -
30/02:00am 15.8 W 25 31 1016.2 - 0.6 - - - - - - -
30/01:30am 15.8 W 25 30 1016.1 - 0.6 - - - - - - -
30/01:00am 15.9 W 25 31 1016.2 - 0.6 - - - - - - -
30/12:30am 15.7 W 23 27 1016.6 - 0.6 - - - - - - -
30/12:00am 15.6 W 23 27 1016.6 - 0.6 - - - - - - -
 
Date/Time
EST
Temp

°C
Wind Pressure Rain
since 9am
mm
Weather Cloud Vis
km
Sea
Height
m
Swell
Dir
 
Speed
knots
Gust
knots
hPa Trend Height
m
Period
s
Dir
29/11:30pm 15.6 W 26 31 1016.6 - 0.6 - - - - - - -
29/11:00pm 15.6 W 26 32 1016.6 - 0.6 - - - - - - -
29/10:30pm 15.7 W 27 32 1016.8 - 0.6 - - - - - - -
29/10:00pm 15.8 W 26 31 1016.7 - 0.6 - - - - - - -
29/09:30pm 15.8 W 26 31 1016.3 - 0.6 - - - - - - -
29/09:00pm 15.7 W 25 29 1015.9 - 0.6 - - - - - - -
29/08:30pm 15.7 W 24 31 1016.1 - 0.6 - - - - - - -
29/08:00pm 15.6 W 26 33 1015.6 - 0.6 - - - - - - -
29/07:30pm 14.5 W 29 38 1015.2 - 0.4 - - - - - - -
29/07:27pm 14.5 W 27 38 1015.1 - 0.4 - - - - - - -
29/07:00pm 15.9 W 27 34 1015.0 - 0.4 - - - - - - -
29/06:30pm 16.0 W 30 36 1014.9 - 0.4 - - - - - - -

Other Formats:

Comma delimited format used in spreadsheet applications
http://www.bom.gov.au/fwo/IDT60701/IDT60701.94804.axf

JavaScript Object Notation format (JSON) in row-major order
http://www.bom.gov.au/fwo/IDT60701/IDT60701.94804.json